Terminal Aerodrome Forecast
Issued by NWS Paducah, KY

Home | Current Version | Previous Version | Graphics & Text | Print | Product List | Glossary On
Versions: 1 2 3 4 5 6 7 8 9 10 11 12 13 14 15 16 17 18 19 20 21 22 23 24
000
FTUS43 KPAH 192100 AAA
TAFPAH
TAF AMD
KPAH 192132Z 1922/2018 31020G35KT 1SM -TSRA BR BKN030CB OVC050
     FM192200 29010KT 5SM -RA BKN030
     FM192300 22005KT P6SM FEW035 SCT080
     FM201400 26006KT P6SM FEW040 SCT150=

USA.gov is the U.S. government's official web portal to all federal, state and local government web resources and services.